KADM/ADM METAR and TAF weather

Enter ICAO airport designator
Station Type Date Time Source
KADM METAR 2020/11/27 13:50 UTC NOAA

KADM 271350Z 36012KT 10SM CLR 06/03 A3014


Station Type Date Time Source
KADM Decoded METAR 2020/11/27 13:50 UTC NOAA

Ardmore, Ardmore Municipal Airport, OK, United States (KADM) 34-18-11N 097-01-10W
Nov 27, 2020 - 08:50 AM EST / 2020.11.27 1350 UTC
Wind: from the N (360 degrees) at 14 MPH (12 KT):0
Visibility: 10 mile(s):0
Sky conditions: clear
Temperature: 42 F (6 C)
Dew Point: 37 F (3 C)
Relative Humidity: 81%
Pressure (altimeter): 30.14 in. Hg (1020 hPa)
ob: KADM 271350Z 36012KT 10SM CLR 06/03 A3014
cycle: 14

Station Type Date Time Source
KADM TAF UTC NOAA

Error!

Example: see airport list